sensor_id;sensor_type;location;lat;lon;timestamp;P1;durP1;ratioP1;P2;durP2;ratioP2
15102;SDS011;7652;53.584;9.998;2022-07-23T00:02:42;2.13;;;0.90;;
15102;SDS011;7652;53.584;9.998;2022-07-23T00:05:45;1.40;;;0.90;;
15102;SDS011;7652;53.584;9.998;2022-07-23T00:08:49;2.07;;;0.97;;
15102;SDS011;7652;53.584;9.998;2022-07-23T00:11:53;1.77;;;1.00;;
15102;SDS011;7652;53.584;9.998;2022-07-23T00:14:56;4.00;;;1.10;;
15102;SDS011;7652;53.584;9.998;2022-07-23T00:17:59;1.97;;;0.80;;
15102;SDS011;7652;53.584;9.998;2022-07-23T00:21:02;2.37;;;0.80;;
15102;SDS011;7652;53.584;9.998;2022-07-23T00:24:07;1.87;;;0.90;;
15102;SDS011;7652;53.584;9.998;2022-07-23T00:27:10;1.40;;;0.90;;
15102;SDS011;7652;53.584;9.998;2022-07-23T00:30:13;1.83;;;0.70;;
15102;SDS011;7652;53.584;9.998;2022-07-23T00:33:17;3.17;;;1.13;;
15102;SDS011;7652;53.584;9.998;2022-07-23T00:36:20;1.63;;;0.80;;
15102;SDS011;7652;53.584;9.998;2022-07-23T00:39:24;2.30;;;0.83;;
15102;SDS011;7652;53.584;9.998;2022-07-23T00:42:27;1.37;;;0.60;;
15102;SDS011;7652;53.584;9.998;2022-07-23T00:45:30;2.57;;;0.90;;
15102;SDS011;7652;53.584;9.998;2022-07-23T00:48:33;0.80;;;0.80;;
15102;SDS011;7652;53.584;9.998;2022-07-23T00:51:36;2.30;;;0.90;;
15102;SDS011;7652;53.584;9.998;2022-07-23T00:54:41;2.10;;;0.90;;
15102;SDS011;7652;53.584;9.998;2022-07-23T00:57:44;2.03;;;1.07;;
15102;SDS011;7652;53.584;9.998;2022-07-23T01:00:47;3.13;;;1.13;;
15102;SDS011;7652;53.584;9.998;2022-07-23T01:03:50;1.57;;;1.10;;
15102;SDS011;7652;53.584;9.998;2022-07-23T01:06:54;2.60;;;1.00;;
15102;SDS011;7652;53.584;9.998;2022-07-23T01:09:58;1.43;;;0.80;;
15102;SDS011;7652;53.584;9.998;2022-07-23T01:13:02;2.47;;;0.97;;
15102;SDS011;7652;53.584;9.998;2022-07-23T01:16:07;2.10;;;0.80;;
15102;SDS011;7652;53.584;9.998;2022-07-23T01:19:12;2.03;;;0.90;;
15102;SDS011;7652;53.584;9.998;2022-07-23T01:22:17;2.07;;;1.20;;
15102;SDS011;7652;53.584;9.998;2022-07-23T01:25:22;4.10;;;1.20;;
15102;SDS011;7652;53.584;9.998;2022-07-23T01:28:26;1.87;;;1.00;;
15102;SDS011;7652;53.584;9.998;2022-07-23T01:31:29;2.30;;;0.93;;
15102;SDS011;7652;53.584;9.998;2022-07-23T01:34:32;2.63;;;1.00;;
15102;SDS011;7652;53.584;9.998;2022-07-23T01:37:35;1.50;;;0.97;;
15102;SDS011;7652;53.584;9.998;2022-07-23T01:40:40;2.47;;;1.07;;
15102;SDS011;7652;53.584;9.998;2022-07-23T01:43:43;1.70;;;1.13;;
15102;SDS011;7652;53.584;9.998;2022-07-23T01:46:46;2.60;;;0.90;;
15102;SDS011;7652;53.584;9.998;2022-07-23T01:49:49;0.83;;;0.80;;
15102;SDS011;7652;53.584;9.998;2022-07-23T01:52:52;1.57;;;0.90;;
15102;SDS011;7652;53.584;9.998;2022-07-23T01:55:57;1.30;;;0.73;;
15102;SDS011;7652;53.584;9.998;2022-07-23T01:59:00;1.20;;;0.73;;
15102;SDS011;7652;53.584;9.998;2022-07-23T02:02:03;1.00;;;0.90;;
15102;SDS011;7652;53.584;9.998;2022-07-23T02:05:07;1.07;;;0.77;;
15102;SDS011;7652;53.584;9.998;2022-07-23T02:08:10;1.10;;;0.77;;
15102;SDS011;7652;53.584;9.998;2022-07-23T02:11:15;1.63;;;1.00;;
15102;SDS011;7652;53.584;9.998;2022-07-23T02:14:18;2.53;;;1.10;;
15102;SDS011;7652;53.584;9.998;2022-07-23T02:17:21;2.30;;;0.80;;
15102;SDS011;7652;53.584;9.998;2022-07-23T02:20:24;1.23;;;0.70;;
15102;SDS011;7652;53.584;9.998;2022-07-23T02:23:27;1.50;;;0.80;;
15102;SDS011;7652;53.584;9.998;2022-07-23T02:26:31;0.97;;;0.70;;
15102;SDS011;7652;53.584;9.998;2022-07-23T02:29:35;1.77;;;0.90;;
15102;SDS011;7652;53.584;9.998;2022-07-23T02:32:38;1.50;;;0.80;;
15102;SDS011;7652;53.584;9.998;2022-07-23T02:35:42;1.23;;;0.60;;
15102;SDS011;7652;53.584;9.998;2022-07-23T02:38:45;2.80;;;0.93;;
15102;SDS011;7652;53.584;9.998;2022-07-23T02:41:49;1.10;;;0.50;;
15102;SDS011;7652;53.584;9.998;2022-07-23T02:44:52;1.30;;;0.90;;
15102;SDS011;7652;53.584;9.998;2022-07-23T02:47:55;2.53;;;0.90;;
15102;SDS011;7652;53.584;9.998;2022-07-23T02:50:58;2.80;;;0.97;;
15102;SDS011;7652;53.584;9.998;2022-07-23T02:54:01;2.63;;;1.03;;
15102;SDS011;7652;53.584;9.998;2022-07-23T02:57:06;2.93;;;1.10;;
15102;SDS011;7652;53.584;9.998;2022-07-23T03:00:09;2.13;;;1.00;;
15102;SDS011;7652;53.584;9.998;2022-07-23T03:03:13;1.60;;;0.90;;
15102;SDS011;7652;53.584;9.998;2022-07-23T03:06:15;0.93;;;0.80;;
15102;SDS011;7652;53.584;9.998;2022-07-23T03:09:19;0.90;;;0.73;;
15102;SDS011;7652;53.584;9.998;2022-07-23T03:12:23;1.63;;;0.80;;
15102;SDS011;7652;53.584;9.998;2022-07-23T03:15:26;2.00;;;1.10;;
15102;SDS011;7652;53.584;9.998;2022-07-23T03:18:29;3.67;;;0.90;;
15102;SDS011;7652;53.584;9.998;2022-07-23T03:21:32;2.07;;;0.90;;
15102;SDS011;7652;53.584;9.998;2022-07-23T03:24:40;1.90;;;0.80;;
15102;SDS011;7652;53.584;9.998;2022-07-23T03:27:59;1.00;;;0.80;;
15102;SDS011;7652;53.584;9.998;2022-07-23T03:31:02;3.43;;;0.80;;
15102;SDS011;7652;53.584;9.998;2022-07-23T03:34:05;2.90;;;1.13;;
15102;SDS011;7652;53.584;9.998;2022-07-23T03:37:08;1.30;;;0.93;;
15102;SDS011;7652;53.584;9.998;2022-07-23T03:40:11;2.80;;;0.93;;
15102;SDS011;7652;53.584;9.998;2022-07-23T03:43:15;2.93;;;0.80;;
15102;SDS011;7652;53.584;9.998;2022-07-23T03:46:19;2.13;;;1.00;;
15102;SDS011;7652;53.584;9.998;2022-07-23T03:49:22;0.90;;;0.73;;
15102;SDS011;7652;53.584;9.998;2022-07-23T03:52:25;2.33;;;1.23;;
15102;SDS011;7652;53.584;9.998;2022-07-23T03:55:28;1.30;;;0.80;;
15102;SDS011;7652;53.584;9.998;2022-07-23T03:58:32;2.47;;;1.10;;
15102;SDS011;7652;53.584;9.998;2022-07-23T04:01:35;2.50;;;0.90;;
15102;SDS011;7652;53.584;9.998;2022-07-23T04:04:39;3.17;;;1.30;;
15102;SDS011;7652;53.584;9.998;2022-07-23T04:07:42;1.87;;;0.93;;
15102;SDS011;7652;53.584;9.998;2022-07-23T04:10:45;4.17;;;0.90;;
15102;SDS011;7652;53.584;9.998;2022-07-23T04:13:49;1.40;;;0.90;;
15102;SDS011;7652;53.584;9.998;2022-07-23T04:16:52;2.27;;;1.00;;
15102;SDS011;7652;53.584;9.998;2022-07-23T04:19:55;1.83;;;1.10;;
15102;SDS011;7652;53.584;9.998;2022-07-23T04:22:58;3.20;;;1.27;;
15102;SDS011;7652;53.584;9.998;2022-07-23T04:26:02;2.97;;;1.00;;
15102;SDS011;7652;53.584;9.998;2022-07-23T04:29:06;2.90;;;1.10;;
15102;SDS011;7652;53.584;9.998;2022-07-23T04:32:09;1.50;;;1.00;;
15102;SDS011;7652;53.584;9.998;2022-07-23T04:35:13;2.47;;;1.10;;
15102;SDS011;7652;53.584;9.998;2022-07-23T04:38:16;2.80;;;1.10;;
15102;SDS011;7652;53.584;9.998;2022-07-23T04:41:19;3.57;;;1.27;;
15102;SDS011;7652;53.584;9.998;2022-07-23T04:44:23;2.43;;;1.00;;
15102;SDS011;7652;53.584;9.998;2022-07-23T04:47:26;3.80;;;1.40;;
15102;SDS011;7652;53.584;9.998;2022-07-23T04:50:29;2.13;;;1.20;;
15102;SDS011;7652;53.584;9.998;2022-07-23T04:53:33;1.60;;;1.47;;
15102;SDS011;7652;53.584;9.998;2022-07-23T04:56:36;3.67;;;1.80;;
15102;SDS011;7652;53.584;9.998;2022-07-23T04:59:40;2.47;;;1.90;;
15102;SDS011;7652;53.584;9.998;2022-07-23T05:02:43;4.13;;;1.63;;
15102;SDS011;7652;53.584;9.998;2022-07-23T05:05:46;2.57;;;1.37;;
15102;SDS011;7652;53.584;9.998;2022-07-23T05:08:49;3.70;;;1.50;;
15102;SDS011;7652;53.584;9.998;2022-07-23T05:11:52;3.33;;;1.37;;
15102;SDS011;7652;53.584;9.998;2022-07-23T05:14:56;2.13;;;1.23;;
15102;SDS011;7652;53.584;9.998;2022-07-23T05:17:59;2.60;;;0.90;;
15102;SDS011;7652;53.584;9.998;2022-07-23T05:21:02;1.70;;;1.00;;
15102;SDS011;7652;53.584;9.998;2022-07-23T05:24:06;5.20;;;1.20;;
15102;SDS011;7652;53.584;9.998;2022-07-23T05:27:09;1.07;;;0.80;;
15102;SDS011;7652;53.584;9.998;2022-07-23T05:30:15;1.43;;;1.00;;
15102;SDS011;7652;53.584;9.998;2022-07-23T05:33:18;2.87;;;0.90;;
15102;SDS011;7652;53.584;9.998;2022-07-23T05:36:21;1.90;;;0.83;;
15102;SDS011;7652;53.584;9.998;2022-07-23T05:39:24;2.20;;;0.80;;
15102;SDS011;7652;53.584;9.998;2022-07-23T05:42:27;1.47;;;0.87;;
15102;SDS011;7652;53.584;9.998;2022-07-23T05:45:32;1.83;;;0.70;;
15102;SDS011;7652;53.584;9.998;2022-07-23T05:48:35;0.80;;;0.80;;
15102;SDS011;7652;53.584;9.998;2022-07-23T05:51:38;1.53;;;0.83;;
15102;SDS011;7652;53.584;9.998;2022-07-23T05:54:41;2.53;;;0.83;;
15102;SDS011;7652;53.584;9.998;2022-07-23T05:57:44;2.20;;;0.77;;
15102;SDS011;7652;53.584;9.998;2022-07-23T06:00:48;0.87;;;0.70;;
15102;SDS011;7652;53.584;9.998;2022-07-23T06:03:51;2.40;;;0.90;;
15102;SDS011;7652;53.584;9.998;2022-07-23T06:06:54;0.80;;;0.60;;
15102;SDS011;7652;53.584;9.998;2022-07-23T06:09:57;1.33;;;0.70;;
15102;SDS011;7652;53.584;9.998;2022-07-23T06:13:00;2.17;;;0.93;;
15102;SDS011;7652;53.584;9.998;2022-07-23T06:16:05;1.13;;;0.90;;
15102;SDS011;7652;53.584;9.998;2022-07-23T06:19:08;3.37;;;1.03;;
15102;SDS011;7652;53.584;9.998;2022-07-23T06:22:11;4.43;;;1.00;;
15102;SDS011;7652;53.584;9.998;2022-07-23T06:25:14;1.23;;;0.90;;
15102;SDS011;7652;53.584;9.998;2022-07-23T06:28:20;2.13;;;1.03;;
15102;SDS011;7652;53.584;9.998;2022-07-23T06:31:24;3.23;;;0.90;;
15102;SDS011;7652;53.584;9.998;2022-07-23T06:34:27;0.70;;;0.70;;
15102;SDS011;7652;53.584;9.998;2022-07-23T06:37:30;1.60;;;0.90;;
15102;SDS011;7652;53.584;9.998;2022-07-23T06:40:34;1.73;;;1.03;;
15102;SDS011;7652;53.584;9.998;2022-07-23T06:43:38;0.97;;;0.90;;
15102;SDS011;7652;53.584;9.998;2022-07-23T06:46:42;1.80;;;0.80;;
15102;SDS011;7652;53.584;9.998;2022-07-23T06:49:45;2.80;;;1.13;;
15102;SDS011;7652;53.584;9.998;2022-07-23T06:52:48;2.23;;;1.07;;
15102;SDS011;7652;53.584;9.998;2022-07-23T06:55:51;1.50;;;0.90;;
15102;SDS011;7652;53.584;9.998;2022-07-23T06:58:54;1.67;;;0.90;;
15102;SDS011;7652;53.584;9.998;2022-07-23T07:01:59;1.23;;;0.70;;
15102;SDS011;7652;53.584;9.998;2022-07-23T07:05:02;1.17;;;0.50;;
15102;SDS011;7652;53.584;9.998;2022-07-23T07:08:07;1.27;;;0.70;;
15102;SDS011;7652;53.584;9.998;2022-07-23T07:11:10;2.00;;;0.70;;
15102;SDS011;7652;53.584;9.998;2022-07-23T07:14:13;2.43;;;0.90;;
15102;SDS011;7652;53.584;9.998;2022-07-23T07:17:17;2.43;;;0.80;;
15102;SDS011;7652;53.584;9.998;2022-07-23T07:20:20;2.67;;;1.10;;
15102;SDS011;7652;53.584;9.998;2022-07-23T07:23:24;0.90;;;0.63;;
15102;SDS011;7652;53.584;9.998;2022-07-23T07:26:27;2.03;;;0.70;;
15102;SDS011;7652;53.584;9.998;2022-07-23T07:29:30;2.67;;;0.83;;
15102;SDS011;7652;53.584;9.998;2022-07-23T07:32:35;2.23;;;0.80;;
15102;SDS011;7652;53.584;9.998;2022-07-23T07:35:58;1.40;;;0.80;;
15102;SDS011;7652;53.584;9.998;2022-07-23T07:39:02;1.63;;;0.60;;
15102;SDS011;7652;53.584;9.998;2022-07-23T07:42:05;1.33;;;0.63;;
15102;SDS011;7652;53.584;9.998;2022-07-23T07:45:08;0.97;;;0.63;;
15102;SDS011;7652;53.584;9.998;2022-07-23T07:48:13;1.60;;;0.70;;
15102;SDS011;7652;53.584;9.998;2022-07-23T07:51:16;1.27;;;0.60;;
15102;SDS011;7652;53.584;9.998;2022-07-23T07:54:21;0.50;;;0.50;;
15102;SDS011;7652;53.584;9.998;2022-07-23T07:57:24;2.43;;;1.00;;
15102;SDS011;7652;53.584;9.998;2022-07-23T08:00:27;1.70;;;0.60;;
15102;SDS011;7652;53.584;9.998;2022-07-23T08:03:31;0.83;;;0.60;;
15102;SDS011;7652;53.584;9.998;2022-07-23T08:06:36;0.87;;;0.60;;
15102;SDS011;7652;53.584;9.998;2022-07-23T08:09:40;0.73;;;0.40;;
15102;SDS011;7652;53.584;9.998;2022-07-23T08:12:43;1.00;;;0.77;;
15102;SDS011;7652;53.584;9.998;2022-07-23T08:15:48;1.50;;;0.60;;
15102;SDS011;7652;53.584;9.998;2022-07-23T08:18:54;1.10;;;0.60;;
15102;SDS011;7652;53.584;9.998;2022-07-23T08:21:57;0.60;;;0.60;;
15102;SDS011;7652;53.584;9.998;2022-07-23T08:25:00;0.93;;;0.80;;
15102;SDS011;7652;53.584;9.998;2022-07-23T08:28:04;1.20;;;0.50;;
15102;SDS011;7652;53.584;9.998;2022-07-23T08:31:08;1.37;;;0.77;;
15102;SDS011;7652;53.584;9.998;2022-07-23T08:34:14;0.80;;;0.77;;
15102;SDS011;7652;53.584;9.998;2022-07-23T08:37:17;1.53;;;0.70;;
15102;SDS011;7652;53.584;9.998;2022-07-23T08:40:20;0.70;;;0.50;;
15102;SDS011;7652;53.584;9.998;2022-07-23T08:43:25;1.47;;;0.60;;
15102;SDS011;7652;53.584;9.998;2022-07-23T08:46:28;0.53;;;0.53;;
15102;SDS011;7652;53.584;9.998;2022-07-23T08:49:33;0.60;;;0.60;;
15102;SDS011;7652;53.584;9.998;2022-07-23T08:52:36;0.87;;;0.60;;
15102;SDS011;7652;53.584;9.998;2022-07-23T08:55:42;0.80;;;0.60;;
15102;SDS011;7652;53.584;9.998;2022-07-23T08:58:46;1.90;;;0.83;;
15102;SDS011;7652;53.584;9.998;2022-07-23T09:01:49;0.60;;;0.60;;
15102;SDS011;7652;53.584;9.998;2022-07-23T09:04:53;0.73;;;0.40;;
15102;SDS011;7652;53.584;9.998;2022-07-23T09:08:10;0.67;;;0.60;;
15102;SDS011;7652;53.584;9.998;2022-07-23T09:11:16;0.50;;;0.50;;
15102;SDS011;7652;53.584;9.998;2022-07-23T09:14:35;1.07;;;0.57;;
15102;SDS011;7652;53.584;9.998;2022-07-23T09:17:42;0.50;;;0.30;;
15102;SDS011;7652;53.584;9.998;2022-07-23T09:20:47;0.53;;;0.53;;
15102;SDS011;7652;53.584;9.998;2022-07-23T09:23:51;1.50;;;0.43;;
15102;SDS011;7652;53.584;9.998;2022-07-23T09:26:58;0.60;;;0.60;;
15102;SDS011;7652;53.584;9.998;2022-07-23T09:30:01;0.50;;;0.50;;
15102;SDS011;7652;53.584;9.998;2022-07-23T09:33:09;0.57;;;0.57;;
15102;SDS011;7652;53.584;9.998;2022-07-23T09:36:14;2.83;;;0.70;;
15102;SDS011;7652;53.584;9.998;2022-07-23T09:39:22;1.60;;;0.50;;
15102;SDS011;7652;53.584;9.998;2022-07-23T09:42:28;1.37;;;0.83;;
15102;SDS011;7652;53.584;9.998;2022-07-23T09:45:32;0.87;;;0.70;;
15102;SDS011;7652;53.584;9.998;2022-07-23T09:48:37;0.90;;;0.70;;
15102;SDS011;7652;53.584;9.998;2022-07-23T09:51:45;0.60;;;0.50;;
15102;SDS011;7652;53.584;9.998;2022-07-23T09:54:49;1.27;;;0.90;;
15102;SDS011;7652;53.584;9.998;2022-07-23T09:58:00;1.00;;;0.77;;
15102;SDS011;7652;53.584;9.998;2022-07-23T10:01:04;1.80;;;0.90;;
15102;SDS011;7652;53.584;9.998;2022-07-23T10:04:07;1.57;;;0.70;;
15102;SDS011;7652;53.584;9.998;2022-07-23T10:07:12;0.60;;;0.60;;
15102;SDS011;7652;53.584;9.998;2022-07-23T10:10:16;1.07;;;0.60;;
15102;SDS011;7652;53.584;9.998;2022-07-23T10:13:20;2.80;;;0.83;;
15102;SDS011;7652;53.584;9.998;2022-07-23T10:16:40;2.07;;;0.67;;
15102;SDS011;7652;53.584;9.998;2022-07-23T10:19:44;0.83;;;0.60;;
15102;SDS011;7652;53.584;9.998;2022-07-23T10:22:53;0.60;;;0.50;;
15102;SDS011;7652;53.584;9.998;2022-07-23T10:26:04;1.13;;;0.43;;
15102;SDS011;7652;53.584;9.998;2022-07-23T10:29:13;0.63;;;0.40;;
15102;SDS011;7652;53.584;9.998;2022-07-23T10:32:26;0.47;;;0.33;;
15102;SDS011;7652;53.584;9.998;2022-07-23T10:35:39;1.23;;;0.50;;
15102;SDS011;7652;53.584;9.998;2022-07-23T10:38:52;1.37;;;0.47;;
15102;SDS011;7652;53.584;9.998;2022-07-23T10:42:07;0.90;;;0.60;;
15102;SDS011;7652;53.584;9.998;2022-07-23T10:45:21;1.47;;;0.60;;
15102;SDS011;7652;53.584;9.998;2022-07-23T10:48:29;1.17;;;0.60;;
15102;SDS011;7652;53.584;9.998;2022-07-23T10:51:32;1.53;;;0.60;;
15102;SDS011;7652;53.584;9.998;2022-07-23T10:54:36;0.93;;;0.50;;
15102;SDS011;7652;53.584;9.998;2022-07-23T10:57:47;1.30;;;0.60;;
15102;SDS011;7652;53.584;9.998;2022-07-23T11:00:51;1.10;;;0.80;;
15102;SDS011;7652;53.584;9.998;2022-07-23T11:03:55;1.73;;;0.83;;
15102;SDS011;7652;53.584;9.998;2022-07-23T11:07:06;1.03;;;0.70;;
15102;SDS011;7652;53.584;9.998;2022-07-23T11:10:13;1.60;;;0.40;;
15102;SDS011;7652;53.584;9.998;2022-07-23T11:16:52;0.63;;;0.50;;
15102;SDS011;7652;53.584;9.998;2022-07-23T11:23:19;0.87;;;0.40;;
15102;SDS011;7652;53.584;9.998;2022-07-23T11:29:47;1.50;;;0.50;;
15102;SDS011;7652;53.584;9.998;2022-07-23T11:32:54;1.03;;;0.50;;
15102;SDS011;7652;53.584;9.998;2022-07-23T11:36:17;0.83;;;0.50;;
15102;SDS011;7652;53.584;9.998;2022-07-23T11:39:21;0.40;;;0.40;;
15102;SDS011;7652;53.584;9.998;2022-07-23T11:42:29;0.30;;;0.30;;
15102;SDS011;7652;53.584;9.998;2022-07-23T11:45:33;0.90;;;0.50;;
15102;SDS011;7652;53.584;9.998;2022-07-23T11:48:37;0.80;;;0.50;;
15102;SDS011;7652;53.584;9.998;2022-07-23T11:51:41;1.43;;;0.80;;
15102;SDS011;7652;53.584;9.998;2022-07-23T11:54:50;0.50;;;0.50;;
15102;SDS011;7652;53.584;9.998;2022-07-23T11:57:57;0.50;;;0.50;;
15102;SDS011;7652;53.584;9.998;2022-07-23T12:01:02;0.70;;;0.60;;
15102;SDS011;7652;53.584;9.998;2022-07-23T12:04:05;2.00;;;0.60;;
15102;SDS011;7652;53.584;9.998;2022-07-23T12:07:24;2.03;;;0.80;;
15102;SDS011;7652;53.584;9.998;2022-07-23T12:10:29;0.50;;;0.50;;
15102;SDS011;7652;53.584;9.998;2022-07-23T12:13:37;2.30;;;0.67;;
15102;SDS011;7652;53.584;9.998;2022-07-23T12:16:40;1.00;;;0.73;;
15102;SDS011;7652;53.584;9.998;2022-07-23T12:19:43;1.10;;;0.77;;
15102;SDS011;7652;53.584;9.998;2022-07-23T12:22:47;4.83;;;0.93;;
15102;SDS011;7652;53.584;9.998;2022-07-23T12:25:52;1.10;;;0.70;;
15102;SDS011;7652;53.584;9.998;2022-07-23T12:28:57;1.03;;;0.70;;
15102;SDS011;7652;53.584;9.998;2022-07-23T12:32:00;2.00;;;0.60;;
15102;SDS011;7652;53.584;9.998;2022-07-23T12:35:04;1.37;;;0.80;;
15102;SDS011;7652;53.584;9.998;2022-07-23T12:38:09;1.33;;;0.63;;
15102;SDS011;7652;53.584;9.998;2022-07-23T12:41:13;1.87;;;0.90;;
15102;SDS011;7652;53.584;9.998;2022-07-23T12:44:18;2.80;;;0.70;;
15102;SDS011;7652;53.584;9.998;2022-07-23T12:47:21;2.13;;;0.70;;
15102;SDS011;7652;53.584;9.998;2022-07-23T12:50:34;1.00;;;0.50;;
15102;SDS011;7652;53.584;9.998;2022-07-23T12:53:43;0.77;;;0.63;;
15102;SDS011;7652;53.584;9.998;2022-07-23T12:56:48;1.13;;;0.63;;
15102;SDS011;7652;53.584;9.998;2022-07-23T12:59:53;1.30;;;0.77;;
15102;SDS011;7652;53.584;9.998;2022-07-23T13:03:19;1.23;;;0.63;;
15102;SDS011;7652;53.584;9.998;2022-07-23T13:06:27;1.60;;;0.70;;
15102;SDS011;7652;53.584;9.998;2022-07-23T13:09:32;2.13;;;0.70;;
15102;SDS011;7652;53.584;9.998;2022-07-23T13:12:42;1.50;;;0.80;;
15102;SDS011;7652;53.584;9.998;2022-07-23T13:15:47;0.70;;;0.70;;
15102;SDS011;7652;53.584;9.998;2022-07-23T13:18:50;1.50;;;0.53;;
15102;SDS011;7652;53.584;9.998;2022-07-23T13:21:53;1.00;;;0.77;;
15102;SDS011;7652;53.584;9.998;2022-07-23T13:24:56;1.00;;;0.60;;
15102;SDS011;7652;53.584;9.998;2022-07-23T13:28:01;1.60;;;0.70;;
15102;SDS011;7652;53.584;9.998;2022-07-23T13:31:10;3.23;;;0.80;;
15102;SDS011;7652;53.584;9.998;2022-07-23T13:34:13;4.23;;;0.80;;
15102;SDS011;7652;53.584;9.998;2022-07-23T13:37:16;1.00;;;0.80;;
15102;SDS011;7652;53.584;9.998;2022-07-23T13:40:19;0.83;;;0.60;;
15102;SDS011;7652;53.584;9.998;2022-07-23T13:43:26;1.10;;;0.57;;
15102;SDS011;7652;53.584;9.998;2022-07-23T13:46:35;0.50;;;0.50;;
15102;SDS011;7652;53.584;9.998;2022-07-23T13:49:38;1.47;;;0.70;;
15102;SDS011;7652;53.584;9.998;2022-07-23T13:52:41;1.43;;;0.80;;
15102;SDS011;7652;53.584;9.998;2022-07-23T13:55:46;1.03;;;0.80;;
15102;SDS011;7652;53.584;9.998;2022-07-23T13:58:49;2.30;;;0.97;;
15102;SDS011;7652;53.584;9.998;2022-07-23T14:01:55;2.67;;;0.90;;
15102;SDS011;7652;53.584;9.998;2022-07-23T14:05:18;1.07;;;0.70;;
15102;SDS011;7652;53.584;9.998;2022-07-23T14:08:21;1.77;;;0.80;;
15102;SDS011;7652;53.584;9.998;2022-07-23T14:11:25;1.30;;;0.83;;
15102;SDS011;7652;53.584;9.998;2022-07-23T14:14:30;0.70;;;0.70;;
15102;SDS011;7652;53.584;9.998;2022-07-23T14:17:35;2.13;;;0.70;;
15102;SDS011;7652;53.584;9.998;2022-07-23T14:20:39;1.10;;;0.63;;
15102;SDS011;7652;53.584;9.998;2022-07-23T14:23:42;1.47;;;0.77;;
15102;SDS011;7652;53.584;9.998;2022-07-23T14:26:45;1.23;;;0.80;;
15102;SDS011;7652;53.584;9.998;2022-07-23T14:29:48;1.13;;;0.50;;
15102;SDS011;7652;53.584;9.998;2022-07-23T14:32:53;1.00;;;0.70;;
15102;SDS011;7652;53.584;9.998;2022-07-23T14:35:56;3.10;;;0.60;;
15102;SDS011;7652;53.584;9.998;2022-07-23T14:39:00;5.13;;;1.07;;
15102;SDS011;7652;53.584;9.998;2022-07-23T14:42:04;1.43;;;0.70;;
15102;SDS011;7652;53.584;9.998;2022-07-23T14:45:07;1.03;;;0.63;;
15102;SDS011;7652;53.584;9.998;2022-07-23T14:48:13;1.13;;;0.60;;
15102;SDS011;7652;53.584;9.998;2022-07-23T14:51:16;1.07;;;0.50;;
15102;SDS011;7652;53.584;9.998;2022-07-23T14:54:20;1.20;;;0.80;;
15102;SDS011;7652;53.584;9.998;2022-07-23T14:57:23;1.37;;;0.70;;
15102;SDS011;7652;53.584;9.998;2022-07-23T15:00:28;1.37;;;0.70;;
15102;SDS011;7652;53.584;9.998;2022-07-23T15:03:32;1.57;;;0.70;;
15102;SDS011;7652;53.584;9.998;2022-07-23T15:06:43;1.63;;;0.60;;
15102;SDS011;7652;53.584;9.998;2022-07-23T15:09:47;1.10;;;0.80;;
15102;SDS011;7652;53.584;9.998;2022-07-23T15:12:50;3.00;;;0.90;;
15102;SDS011;7652;53.584;9.998;2022-07-23T15:15:55;2.90;;;1.30;;
15102;SDS011;7652;53.584;9.998;2022-07-23T15:18:59;1.00;;;0.60;;
15102;SDS011;7652;53.584;9.998;2022-07-23T15:22:03;3.10;;;0.77;;
15102;SDS011;7652;53.584;9.998;2022-07-23T15:25:08;2.67;;;1.00;;
15102;SDS011;7652;53.584;9.998;2022-07-23T15:28:13;1.33;;;0.87;;
15102;SDS011;7652;53.584;9.998;2022-07-23T15:31:22;2.70;;;1.00;;
15102;SDS011;7652;53.584;9.998;2022-07-23T15:34:30;3.07;;;0.90;;
15102;SDS011;7652;53.584;9.998;2022-07-23T15:37:34;0.90;;;0.70;;
15102;SDS011;7652;53.584;9.998;2022-07-23T15:40:37;2.37;;;0.80;;
15102;SDS011;7652;53.584;9.998;2022-07-23T15:43:40;2.43;;;0.80;;
15102;SDS011;7652;53.584;9.998;2022-07-23T15:46:43;1.33;;;0.90;;
15102;SDS011;7652;53.584;9.998;2022-07-23T15:49:48;2.20;;;0.67;;
15102;SDS011;7652;53.584;9.998;2022-07-23T15:52:51;1.27;;;0.80;;
15102;SDS011;7652;53.584;9.998;2022-07-23T15:55:54;3.17;;;0.70;;
15102;SDS011;7652;53.584;9.998;2022-07-23T15:58:59;1.73;;;0.70;;
15102;SDS011;7652;53.584;9.998;2022-07-23T16:02:04;0.57;;;0.57;;
15102;SDS011;7652;53.584;9.998;2022-07-23T16:05:10;1.17;;;0.77;;
15102;SDS011;7652;53.584;9.998;2022-07-23T16:08:13;2.57;;;0.70;;
15102;SDS011;7652;53.584;9.998;2022-07-23T16:11:16;1.43;;;0.83;;
15102;SDS011;7652;53.584;9.998;2022-07-23T16:14:20;0.83;;;0.67;;
15102;SDS011;7652;53.584;9.998;2022-07-23T16:17:23;0.83;;;0.53;;
15102;SDS011;7652;53.584;9.998;2022-07-23T16:20:27;0.73;;;0.60;;
15102;SDS011;7652;53.584;9.998;2022-07-23T16:23:30;0.90;;;0.60;;
15102;SDS011;7652;53.584;9.998;2022-07-23T16:26:34;1.33;;;0.77;;
15102;SDS011;7652;53.584;9.998;2022-07-23T16:29:37;1.50;;;0.90;;
15102;SDS011;7652;53.584;9.998;2022-07-23T16:32:40;1.43;;;0.77;;
15102;SDS011;7652;53.584;9.998;2022-07-23T16:35:47;0.50;;;0.50;;
15102;SDS011;7652;53.584;9.998;2022-07-23T16:38:50;1.13;;;0.80;;
15102;SDS011;7652;53.584;9.998;2022-07-23T16:41:53;0.70;;;0.70;;
15102;SDS011;7652;53.584;9.998;2022-07-23T16:44:56;1.83;;;0.87;;
15102;SDS011;7652;53.584;9.998;2022-07-23T16:48:07;1.10;;;0.60;;
15102;SDS011;7652;53.584;9.998;2022-07-23T16:51:11;1.33;;;0.80;;
15102;SDS011;7652;53.584;9.998;2022-07-23T16:54:14;2.00;;;0.87;;
15102;SDS011;7652;53.584;9.998;2022-07-23T16:57:18;0.73;;;0.73;;
15102;SDS011;7652;53.584;9.998;2022-07-23T17:00:21;1.53;;;1.07;;
15102;SDS011;7652;53.584;9.998;2022-07-23T17:03:24;1.53;;;0.90;;
15102;SDS011;7652;53.584;9.998;2022-07-23T17:06:31;0.97;;;0.80;;
15102;SDS011;7652;53.584;9.998;2022-07-23T17:09:34;1.13;;;0.80;;
15102;SDS011;7652;53.584;9.998;2022-07-23T17:12:37;1.67;;;0.70;;
15102;SDS011;7652;53.584;9.998;2022-07-23T17:15:40;0.70;;;0.70;;
15102;SDS011;7652;53.584;9.998;2022-07-23T17:18:43;1.00;;;0.70;;
15102;SDS011;7652;53.584;9.998;2022-07-23T17:21:48;2.10;;;1.03;;
15102;SDS011;7652;53.584;9.998;2022-07-23T17:24:51;1.63;;;1.00;;
15102;SDS011;7652;53.584;9.998;2022-07-23T17:27:54;2.53;;;1.30;;
15102;SDS011;7652;53.584;9.998;2022-07-23T17:30:58;1.27;;;0.80;;
15102;SDS011;7652;53.584;9.998;2022-07-23T17:34:01;1.07;;;0.97;;
15102;SDS011;7652;53.584;9.998;2022-07-23T17:37:05;1.53;;;0.80;;
15102;SDS011;7652;53.584;9.998;2022-07-23T17:40:10;0.93;;;0.80;;
15102;SDS011;7652;53.584;9.998;2022-07-23T17:43:13;1.13;;;0.70;;
15102;SDS011;7652;53.584;9.998;2022-07-23T17:46:18;0.80;;;0.70;;
15102;SDS011;7652;53.584;9.998;2022-07-23T17:49:21;1.47;;;1.00;;
15102;SDS011;7652;53.584;9.998;2022-07-23T17:52:25;1.53;;;0.80;;
15102;SDS011;7652;53.584;9.998;2022-07-23T17:55:28;0.80;;;0.80;;
15102;SDS011;7652;53.584;9.998;2022-07-23T17:58:31;2.10;;;0.80;;
15102;SDS011;7652;53.584;9.998;2022-07-23T18:01:35;2.37;;;0.80;;
15102;SDS011;7652;53.584;9.998;2022-07-23T18:04:39;1.10;;;0.80;;
15102;SDS011;7652;53.584;9.998;2022-07-23T18:07:43;3.20;;;0.80;;
15102;SDS011;7652;53.584;9.998;2022-07-23T18:10:46;2.17;;;0.80;;
15102;SDS011;7652;53.584;9.998;2022-07-23T18:13:49;0.90;;;0.67;;
15102;SDS011;7652;53.584;9.998;2022-07-23T18:16:52;1.33;;;0.90;;
15102;SDS011;7652;53.584;9.998;2022-07-23T18:19:56;3.00;;;1.00;;
15102;SDS011;7652;53.584;9.998;2022-07-23T18:23:00;2.37;;;1.10;;
15102;SDS011;7652;53.584;9.998;2022-07-23T18:26:04;1.90;;;0.90;;
15102;SDS011;7652;53.584;9.998;2022-07-23T18:29:13;2.90;;;0.93;;
15102;SDS011;7652;53.584;9.998;2022-07-23T18:32:16;1.47;;;0.80;;
15102;SDS011;7652;53.584;9.998;2022-07-23T18:35:19;0.70;;;0.70;;
15102;SDS011;7652;53.584;9.998;2022-07-23T18:38:25;1.00;;;0.90;;
15102;SDS011;7652;53.584;9.998;2022-07-23T18:41:28;1.10;;;1.00;;
15102;SDS011;7652;53.584;9.998;2022-07-23T18:44:31;1.13;;;0.87;;
15102;SDS011;7652;53.584;9.998;2022-07-23T18:47:34;1.20;;;0.90;;
15102;SDS011;7652;53.584;9.998;2022-07-23T18:50:38;2.40;;;1.17;;
15102;SDS011;7652;53.584;9.998;2022-07-23T18:53:43;1.30;;;0.90;;
15102;SDS011;7652;53.584;9.998;2022-07-23T18:56:46;1.30;;;0.80;;
15102;SDS011;7652;53.584;9.998;2022-07-23T18:59:50;3.37;;;0.90;;